createdAt,value
2019-03-26T00:02:04.527Z,0.93
2019-03-26T00:04:10.817Z,1.40
2019-03-26T00:06:16.650Z,1.40
2019-03-26T00:08:22.649Z,1.20
2019-03-26T00:10:28.480Z,1.20
2019-03-26T00:12:34.322Z,1.00
2019-03-26T00:14:39.980Z,1.37
2019-03-26T00:16:45.702Z,1.10
2019-03-26T00:18:52.238Z,1.00
2019-03-26T00:20:58.239Z,1.20
2019-03-26T00:23:04.006Z,1.20
2019-03-26T00:25:09.829Z,1.33
2019-03-26T00:27:15.497Z,1.63
2019-03-26T00:29:21.523Z,1.70
2019-03-26T00:31:27.379Z,1.63
2019-03-26T00:33:36.515Z,1.50
2019-03-26T00:35:40.944Z,1.57
2019-03-26T00:37:46.870Z,1.40
2019-03-26T00:39:52.589Z,1.33
2019-03-26T00:41:58.648Z,1.50
2019-03-26T00:44:04.448Z,1.50
2019-03-26T00:46:11.239Z,1.57
2019-03-26T00:48:17.247Z,1.47
2019-03-26T00:50:23.268Z,1.40
2019-03-26T00:52:29.558Z,1.60
2019-03-26T00:54:35.836Z,1.60
2019-03-26T00:56:41.509Z,1.50
2019-03-26T00:58:47.791Z,1.30
2019-03-26T01:00:53.985Z,1.70
2019-03-26T01:02:59.748Z,2.60
2019-03-26T01:05:06.553Z,1.97
2019-03-26T01:07:12.798Z,2.20
2019-03-26T01:09:28.112Z,2.60
2019-03-26T01:11:34.523Z,2.20
2019-03-26T01:13:40.538Z,2.40
2019-03-26T01:15:46.904Z,2.27
2019-03-26T01:17:53.187Z,1.90
2019-03-26T01:19:59.567Z,2.20
2019-03-26T01:22:05.915Z,2.00
2019-03-26T01:24:11.575Z,2.17
2019-03-26T01:26:17.677Z,1.97
2019-03-26T01:28:24.002Z,2.40
2019-03-26T01:30:30.869Z,2.77
2019-03-26T01:32:37.066Z,2.73
2019-03-26T01:34:46.131Z,2.13
2019-03-26T01:36:50.420Z,2.33
2019-03-26T01:38:56.738Z,2.57
2019-03-26T01:41:02.487Z,2.50
2019-03-26T01:43:08.968Z,2.90
2019-03-26T01:45:14.877Z,2.70
2019-03-26T01:47:21.088Z,2.50
2019-03-26T01:49:27.023Z,2.47
2019-03-26T01:51:33.415Z,2.20
2019-03-26T01:53:39.425Z,2.17
2019-03-26T01:55:45.132Z,2.60
2019-03-26T01:57:51.716Z,3.20
2019-03-26T02:00:00.616Z,2.43
2019-03-26T02:02:08.396Z,2.40
2019-03-26T02:04:20.414Z,1.93
2019-03-26T02:06:28.971Z,2.53
2019-03-26T02:08:35.206Z,2.07
2019-03-26T02:10:41.376Z,2.93
2019-03-26T02:12:48.762Z,2.63
2019-03-26T02:14:55.206Z,2.83
2019-03-26T02:17:01.267Z,2.27
2019-03-26T02:19:07.080Z,2.47
2019-03-26T02:21:13.118Z,2.23
2019-03-26T02:23:19.597Z,2.10
2019-03-26T02:25:25.896Z,2.60
2019-03-26T02:27:31.843Z,2.60
2019-03-26T02:29:38.176Z,3.07
2019-03-26T02:31:43.926Z,2.77
2019-03-26T02:33:50.413Z,2.40
2019-03-26T02:35:56.358Z,2.97
2019-03-26T02:38:02.024Z,2.67
2019-03-26T02:40:07.993Z,2.57
2019-03-26T02:42:14.056Z,2.50
2019-03-26T02:44:20.457Z,2.87
2019-03-26T02:46:26.580Z,2.40
2019-03-26T02:48:32.466Z,3.03
2019-03-26T02:50:38.989Z,2.63
2019-03-26T02:52:45.552Z,2.23
2019-03-26T02:54:51.537Z,2.17
2019-03-26T02:56:57.303Z,2.07
2019-03-26T02:59:05.654Z,2.73
2019-03-26T03:01:16.121Z,2.90
2019-03-26T03:03:22.409Z,3.37
2019-03-26T03:05:35.749Z,2.60
2019-03-26T03:07:36.183Z,2.40
2019-03-26T03:09:42.652Z,2.83
2019-03-26T03:11:48.708Z,3.00
2019-03-26T03:13:55.005Z,2.20
2019-03-26T03:16:01.282Z,2.03
2019-03-26T03:18:08.217Z,2.13
2019-03-26T03:20:14.574Z,1.97
2019-03-26T03:22:20.654Z,2.73
2019-03-26T03:24:26.610Z,2.50
2019-03-26T03:26:33.156Z,2.47
2019-03-26T03:28:39.300Z,2.20
2019-03-26T03:30:45.385Z,2.33
2019-03-26T03:32:51.428Z,1.90
2019-03-26T03:34:57.371Z,2.33
2019-03-26T03:37:04.082Z,2.70
2019-03-26T03:39:10.983Z,2.00
2019-03-26T03:41:16.864Z,3.00
2019-03-26T03:43:23.578Z,1.97
2019-03-26T03:45:31.555Z,2.10
2019-03-26T03:47:38.703Z,2.37
2019-03-26T03:49:45.497Z,2.93
2019-03-26T03:51:53.410Z,2.50
2019-03-26T03:53:59.919Z,15.37
2019-03-26T03:56:06.793Z,2.80
2019-03-26T03:58:12.644Z,2.03
2019-03-26T04:00:51.563Z,2.27
2019-03-26T04:02:57.549Z,1.80
2019-03-26T04:05:03.223Z,2.47
2019-03-26T04:07:08.923Z,1.90
2019-03-26T04:09:14.686Z,1.90
2019-03-26T04:11:21.534Z,1.80
2019-03-26T04:13:27.271Z,1.90
2019-03-26T04:15:35.095Z,2.07
2019-03-26T04:17:40.539Z,1.97
2019-03-26T04:19:46.812Z,1.80
2019-03-26T04:21:53.469Z,2.20
2019-03-26T04:23:59.123Z,1.90
2019-03-26T04:26:05.685Z,2.03
2019-03-26T04:28:11.851Z,1.80
2019-03-26T04:30:28.223Z,2.37
2019-03-26T04:32:34.951Z,1.90
2019-03-26T04:34:43.731Z,2.80
2019-03-26T04:36:49.668Z,2.50
2019-03-26T04:38:56.065Z,1.87
2019-03-26T04:41:02.059Z,2.17
2019-03-26T04:43:07.812Z,2.03
2019-03-26T04:45:14.017Z,2.63
2019-03-26T04:47:20.327Z,2.30
2019-03-26T04:49:26.397Z,2.57
2019-03-26T04:51:32.146Z,2.17
2019-03-26T04:53:38.112Z,2.10
2019-03-26T04:55:43.820Z,2.03
2019-03-26T04:57:49.753Z,1.93
2019-03-26T04:59:55.785Z,2.43
2019-03-26T05:02:01.795Z,2.20
2019-03-26T05:04:08.103Z,1.97
2019-03-26T05:06:14.040Z,2.50
2019-03-26T05:08:20.069Z,2.70
2019-03-26T05:10:25.947Z,2.50
2019-03-26T05:12:32.385Z,2.37
2019-03-26T05:14:38.290Z,1.97
2019-03-26T05:16:44.046Z,2.73
2019-03-26T05:18:49.792Z,2.73
2019-03-26T05:20:55.762Z,2.37
2019-03-26T05:23:01.551Z,2.47
2019-03-26T05:25:09.135Z,2.07
2019-03-26T05:27:15.154Z,2.70
2019-03-26T05:29:21.316Z,3.13
2019-03-26T05:31:27.031Z,3.20
2019-03-26T05:33:32.795Z,2.70
2019-03-26T05:35:39.400Z,2.33
2019-03-26T05:37:45.414Z,2.90
2019-03-26T05:39:52.052Z,2.87
2019-03-26T05:41:58.493Z,3.13
2019-03-26T05:44:04.415Z,3.23
2019-03-26T05:46:10.168Z,2.87
2019-03-26T05:48:16.006Z,2.70
2019-03-26T05:50:21.802Z,3.20
2019-03-26T05:52:27.951Z,3.07
2019-03-26T05:54:34.266Z,3.13
2019-03-26T05:56:40.356Z,3.30
2019-03-26T05:58:46.103Z,3.43
2019-03-26T06:00:52.287Z,3.23
2019-03-26T06:02:58.304Z,3.50
2019-03-26T06:05:04.959Z,3.53
2019-03-26T06:07:11.227Z,3.50
2019-03-26T06:09:17.234Z,3.20
2019-03-26T06:11:23.479Z,3.57
2019-03-26T06:13:29.694Z,3.30
2019-03-26T06:15:36.198Z,2.70
2019-03-26T06:17:42.478Z,3.30
2019-03-26T06:19:48.399Z,3.10
2019-03-26T06:21:54.923Z,3.10
2019-03-26T06:24:01.064Z,2.80
2019-03-26T06:26:07.181Z,3.30
2019-03-26T06:28:13.500Z,3.30
2019-03-26T06:30:19.578Z,2.87
2019-03-26T06:32:25.325Z,3.90
2019-03-26T06:34:32.252Z,3.00
2019-03-26T06:36:38.379Z,3.07
2019-03-26T06:38:44.602Z,2.80
2019-03-26T06:40:50.668Z,3.07
2019-03-26T06:42:56.648Z,2.57
2019-03-26T06:45:03.109Z,2.93
2019-03-26T06:47:09.474Z,2.93
2019-03-26T06:49:15.432Z,3.30
2019-03-26T06:51:21.617Z,2.70
2019-03-26T06:53:27.699Z,3.40
2019-03-26T06:55:33.414Z,3.37
2019-03-26T06:57:39.820Z,2.87
2019-03-26T06:59:45.535Z,3.70
2019-03-26T07:01:52.042Z,3.00
2019-03-26T07:03:58.453Z,2.57
2019-03-26T07:06:04.450Z,2.40
2019-03-26T07:08:10.859Z,3.13
2019-03-26T07:10:22.672Z,2.60
2019-03-26T07:12:28.544Z,2.73
2019-03-26T07:14:34.610Z,2.70
2019-03-26T07:16:40.902Z,2.53
2019-03-26T07:18:47.141Z,2.90
2019-03-26T07:20:53.654Z,2.57
2019-03-26T07:22:59.883Z,3.00
2019-03-26T07:25:07.323Z,3.20
2019-03-26T07:27:13.086Z,2.47
2019-03-26T07:29:19.037Z,2.90
2019-03-26T07:31:24.756Z,2.70
2019-03-26T07:33:31.208Z,2.50
2019-03-26T07:35:37.141Z,2.77
2019-03-26T07:37:45.508Z,2.83
2019-03-26T07:39:52.348Z,2.57
2019-03-26T07:41:59.570Z,2.70
2019-03-26T07:44:07.508Z,2.70
2019-03-26T07:46:13.912Z,2.53
2019-03-26T07:48:20.836Z,3.17
2019-03-26T07:50:26.672Z,2.70
2019-03-26T07:52:33.244Z,2.60
2019-03-26T07:54:39.292Z,1.83
2019-03-26T07:56:46.050Z,2.43
2019-03-26T07:58:52.104Z,2.73
2019-03-26T08:00:58.108Z,2.47
2019-03-26T08:03:04.142Z,2.60
2019-03-26T08:05:10.286Z,2.40
2019-03-26T08:07:16.805Z,2.70
2019-03-26T08:09:22.987Z,2.50
2019-03-26T08:11:29.348Z,2.60
2019-03-26T08:13:35.671Z,2.60
2019-03-26T08:15:41.979Z,2.73
2019-03-26T08:17:48.007Z,2.67
2019-03-26T08:19:54.101Z,3.10
2019-03-26T08:22:00.285Z,2.43
2019-03-26T08:24:06.230Z,1.97
2019-03-26T08:26:12.599Z,2.60
2019-03-26T08:28:18.368Z,2.60
2019-03-26T08:30:24.131Z,2.00
2019-03-26T08:32:30.234Z,2.10
2019-03-26T08:34:36.298Z,2.60
2019-03-26T08:36:42.988Z,2.03
2019-03-26T08:38:49.113Z,3.10
2019-03-26T08:40:55.484Z,2.03
2019-03-26T08:43:01.227Z,1.67
2019-03-26T08:45:08.555Z,1.83
2019-03-26T08:47:15.402Z,1.70
2019-03-26T08:49:21.292Z,1.57
2019-03-26T08:51:27.718Z,1.80
2019-03-26T08:53:34.464Z,1.77
2019-03-26T08:55:40.733Z,1.70
2019-03-26T08:57:46.788Z,1.90
2019-03-26T08:59:52.553Z,1.60
2019-03-26T09:01:58.641Z,2.20
2019-03-26T09:04:05.322Z,2.13
2019-03-26T09:06:12.533Z,2.00
2019-03-26T09:08:25.251Z,2.27
2019-03-26T09:10:26.510Z,2.30
2019-03-26T09:12:32.792Z,1.90
2019-03-26T09:14:39.096Z,2.27
2019-03-26T09:16:45.142Z,2.10
2019-03-26T09:18:51.121Z,1.77
2019-03-26T09:20:57.500Z,2.70
2019-03-26T09:23:03.892Z,2.37
2019-03-26T09:25:11.119Z,2.70
2019-03-26T09:27:17.160Z,2.43
2019-03-26T09:29:23.232Z,2.27
2019-03-26T09:31:29.604Z,2.40
2019-03-26T09:33:35.742Z,2.53
2019-03-26T09:35:41.766Z,2.20
2019-03-26T09:37:47.833Z,2.50
2019-03-26T09:39:53.850Z,2.10
2019-03-26T09:42:00.290Z,1.80
2019-03-26T09:44:06.285Z,1.90
2019-03-26T09:46:12.418Z,1.97
2019-03-26T09:48:18.754Z,2.50
2019-03-26T09:50:34.599Z,1.87
2019-03-26T09:52:40.690Z,2.03
2019-03-26T09:54:46.737Z,2.03
2019-03-26T09:56:53.460Z,1.90
2019-03-26T09:58:59.615Z,1.90
2019-03-26T10:01:05.396Z,2.03
2019-03-26T10:03:11.601Z,2.07
2019-03-26T10:05:17.522Z,1.83
2019-03-26T10:07:23.237Z,2.37
2019-03-26T10:09:29.059Z,2.10
2019-03-26T10:11:35.371Z,1.90
2019-03-26T10:13:41.790Z,2.37
2019-03-26T10:15:47.909Z,1.90
2019-03-26T10:17:54.379Z,2.33
2019-03-26T10:20:00.781Z,2.47
2019-03-26T10:22:06.817Z,2.30
2019-03-26T10:24:13.659Z,2.27
2019-03-26T10:26:19.399Z,2.37
2019-03-26T10:28:25.511Z,2.50
2019-03-26T10:30:37.707Z,3.13
2019-03-26T10:32:43.786Z,3.30
2019-03-26T10:34:49.787Z,3.10
2019-03-26T10:36:55.985Z,2.33
2019-03-26T10:41:10.185Z,2.80
2019-03-26T10:43:16.117Z,2.70
2019-03-26T10:45:21.829Z,2.27
2019-03-26T10:47:28.048Z,2.60
2019-03-26T10:49:34.494Z,2.30
2019-03-26T10:51:41.310Z,2.07
2019-03-26T10:53:47.110Z,2.43
2019-03-26T10:55:53.157Z,2.30
2019-03-26T10:57:58.943Z,2.57
2019-03-26T11:00:05.659Z,2.80
2019-03-26T11:02:12.308Z,2.93
2019-03-26T11:04:18.204Z,3.20
2019-03-26T11:06:24.065Z,2.90
2019-03-26T11:08:35.341Z,2.47
2019-03-26T11:10:41.012Z,2.80
2019-03-26T11:12:46.779Z,2.40
2019-03-26T11:14:53.070Z,2.97
2019-03-26T11:16:59.257Z,2.80
2019-03-26T11:19:05.373Z,2.60
2019-03-26T11:21:11.395Z,2.80
2019-03-26T11:23:17.849Z,2.63
2019-03-26T11:25:25.043Z,3.30
2019-03-26T11:27:31.539Z,2.80
2019-03-26T11:29:37.495Z,2.47
2019-03-26T11:31:43.917Z,2.60
2019-03-26T11:33:49.604Z,2.67
2019-03-26T11:35:55.741Z,2.53
2019-03-26T11:38:01.805Z,1.97
2019-03-26T11:40:09.629Z,2.23
2019-03-26T11:42:15.601Z,2.07
2019-03-26T11:44:22.735Z,2.30
2019-03-26T11:46:28.785Z,1.63
2019-03-26T11:48:34.703Z,2.13
2019-03-26T11:50:40.517Z,2.20
2019-03-26T11:52:46.413Z,1.90
2019-03-26T11:54:52.871Z,2.20
2019-03-26T11:56:58.742Z,2.20
2019-03-26T11:59:04.869Z,2.30
2019-03-26T12:01:11.023Z,2.33
2019-03-26T12:03:16.819Z,2.47
2019-03-26T12:05:22.931Z,2.30
2019-03-26T12:07:28.747Z,3.07
2019-03-26T12:09:45.560Z,2.60
2019-03-26T12:11:43.102Z,2.87
2019-03-26T12:13:49.659Z,3.87
2019-03-26T12:15:55.329Z,4.43
2019-03-26T12:18:01.517Z,4.60
2019-03-26T12:20:09.037Z,5.33
2019-03-26T12:22:15.330Z,5.40
2019-03-26T12:24:22.630Z,5.27
2019-03-26T12:26:28.686Z,5.47
2019-03-26T12:28:34.392Z,4.30
2019-03-26T12:30:40.801Z,4.40
2019-03-26T12:32:47.434Z,4.23
2019-03-26T12:34:53.501Z,4.00
2019-03-26T12:36:59.524Z,3.37
2019-03-26T12:39:07.862Z,3.33
2019-03-26T12:41:14.274Z,3.33
2019-03-26T12:43:20.500Z,3.10
2019-03-26T12:45:26.382Z,3.40
2019-03-26T12:47:32.358Z,3.67
2019-03-26T12:49:38.431Z,3.00
2019-03-26T12:51:44.583Z,2.67
2019-03-26T12:53:50.633Z,2.80
2019-03-26T12:55:56.709Z,2.53
2019-03-26T12:58:02.564Z,2.20
2019-03-26T13:00:10.727Z,2.10
2019-03-26T13:02:16.540Z,2.30
2019-03-26T13:04:22.950Z,2.20
2019-03-26T13:06:29.125Z,2.00
2019-03-26T13:08:35.683Z,1.70
2019-03-26T13:10:52.919Z,2.10
2019-03-26T13:12:49.207Z,1.57
2019-03-26T13:14:55.675Z,1.83
2019-03-26T13:17:01.741Z,1.73
2019-03-26T13:19:07.960Z,2.90
2019-03-26T13:21:13.999Z,2.67
2019-03-26T13:23:20.167Z,2.93
2019-03-26T13:25:26.295Z,3.53
2019-03-26T13:27:32.422Z,4.13
2019-03-26T13:29:38.447Z,4.57
2019-03-26T13:31:44.130Z,4.57
2019-03-26T13:33:50.213Z,5.03
2019-03-26T13:35:56.090Z,5.50
2019-03-26T13:38:02.793Z,5.53
2019-03-26T13:40:09.564Z,6.27
2019-03-26T13:42:15.655Z,6.70
2019-03-26T13:44:21.627Z,6.43
2019-03-26T13:46:28.018Z,6.80
2019-03-26T13:48:34.897Z,6.97
2019-03-26T13:50:40.961Z,6.80
2019-03-26T13:52:47.371Z,5.53
2019-03-26T13:54:53.857Z,5.80
2019-03-26T13:57:00.026Z,4.30
2019-03-26T13:59:06.153Z,4.13
2019-03-26T14:01:12.303Z,4.23
2019-03-26T14:03:19.270Z,3.53
2019-03-26T14:05:26.627Z,3.63
2019-03-26T14:07:33.132Z,3.07
2019-03-26T14:09:39.189Z,3.30
2019-03-26T14:11:44.885Z,3.00
2019-03-26T14:13:51.201Z,3.80
2019-03-26T14:15:56.965Z,3.13
2019-03-26T14:18:03.046Z,3.87
2019-03-26T14:20:09.383Z,3.83
2019-03-26T14:22:15.425Z,3.13
2019-03-26T14:24:21.095Z,3.37
2019-03-26T14:26:26.872Z,3.27
2019-03-26T14:28:33.554Z,2.67
2019-03-26T14:30:46.509Z,2.30
2019-03-26T14:32:55.881Z,2.63
2019-03-26T14:35:01.727Z,1.90
2019-03-26T14:37:07.718Z,1.90
2019-03-26T14:39:13.769Z,2.00
2019-03-26T14:41:19.863Z,2.20
2019-03-26T14:43:26.045Z,2.27
2019-03-26T14:45:31.947Z,2.10
2019-03-26T14:47:37.737Z,2.50
2019-03-26T14:49:43.737Z,2.93
2019-03-26T14:51:49.443Z,2.63
2019-03-26T14:53:55.301Z,2.03
2019-03-26T14:56:01.467Z,2.00
2019-03-26T14:58:07.469Z,2.07
2019-03-26T15:00:14.856Z,2.20
2019-03-26T15:02:21.330Z,2.10
2019-03-26T15:04:27.716Z,4.87
2019-03-26T15:06:33.407Z,3.13
2019-03-26T15:08:39.203Z,2.53
2019-03-26T15:10:45.767Z,11.77
2019-03-26T15:12:51.746Z,4.53
2019-03-26T15:14:57.771Z,4.57
2019-03-26T15:17:03.556Z,4.40
2019-03-26T15:19:09.808Z,3.47
2019-03-26T15:21:15.842Z,3.43
2019-03-26T15:23:22.509Z,3.33
2019-03-26T15:25:29.251Z,3.30
2019-03-26T15:27:35.261Z,3.30
2019-03-26T15:29:41.207Z,3.50
2019-03-26T15:31:47.308Z,3.30
2019-03-26T15:33:53.591Z,3.80
2019-03-26T15:36:00.203Z,4.20
2019-03-26T15:38:06.872Z,4.70
2019-03-26T15:40:12.917Z,5.10
2019-03-26T15:42:19.252Z,4.97
2019-03-26T15:44:25.077Z,5.77
2019-03-26T15:46:31.553Z,5.57
2019-03-26T15:48:37.607Z,6.13
2019-03-26T15:50:46.176Z,5.53
2019-03-26T15:52:52.292Z,5.63
2019-03-26T15:54:57.990Z,6.73
2019-03-26T15:57:03.817Z,6.37
2019-03-26T15:59:09.716Z,7.70
2019-03-26T16:01:15.962Z,7.37
2019-03-26T16:03:22.714Z,9.13
2019-03-26T16:05:29.150Z,6.60
2019-03-26T16:07:36.333Z,6.73
2019-03-26T16:09:42.831Z,6.20
2019-03-26T16:11:48.844Z,5.67
2019-03-26T16:13:55.620Z,5.73
2019-03-26T16:16:01.803Z,5.83
2019-03-26T16:18:08.206Z,6.63
2019-03-26T16:20:14.826Z,6.43
2019-03-26T16:22:20.764Z,11.13
2019-03-26T16:24:26.550Z,10.33
2019-03-26T16:26:33.597Z,7.93
2019-03-26T16:28:39.563Z,7.27
2019-03-26T16:30:45.346Z,6.83
2019-03-26T16:32:51.199Z,7.03
2019-03-26T16:34:57.920Z,6.83
2019-03-26T16:37:04.526Z,6.07
2019-03-26T16:39:10.987Z,6.57
2019-03-26T16:41:17.050Z,6.10
2019-03-26T16:43:22.837Z,5.93
2019-03-26T16:45:29.122Z,5.80
2019-03-26T16:47:35.294Z,5.20
2019-03-26T16:49:41.058Z,5.33
2019-03-26T16:51:47.451Z,5.17
2019-03-26T16:53:53.309Z,4.17
2019-03-26T16:55:59.117Z,4.50
2019-03-26T16:58:05.239Z,5.27
2019-03-26T17:00:11.789Z,4.37
2019-03-26T17:02:17.954Z,4.17
2019-03-26T17:04:24.850Z,3.53
2019-03-26T17:06:30.893Z,3.73
2019-03-26T17:08:37.490Z,3.80
2019-03-26T17:10:44.483Z,3.13
2019-03-26T17:12:50.632Z,4.57
2019-03-26T17:14:56.714Z,7.43
2019-03-26T17:17:02.785Z,4.30
2019-03-26T17:19:08.712Z,3.10
2019-03-26T17:21:14.496Z,3.23
2019-03-26T17:23:20.706Z,3.30
2019-03-26T17:25:26.984Z,2.83
2019-03-26T17:27:33.140Z,2.10
2019-03-26T17:29:41.352Z,2.50
2019-03-26T17:31:48.260Z,2.50
2019-03-26T17:33:54.082Z,2.50
2019-03-26T17:36:00.093Z,2.73
2019-03-26T17:38:08.952Z,2.40
2019-03-26T17:40:15.221Z,2.17
2019-03-26T17:42:20.961Z,2.47
2019-03-26T17:44:27.386Z,2.60
2019-03-26T17:46:34.505Z,2.33
2019-03-26T17:48:40.839Z,2.50
2019-03-26T17:50:48.047Z,2.30
2019-03-26T17:52:54.941Z,2.10
2019-03-26T17:55:03.047Z,2.20
2019-03-26T17:57:10.806Z,1.73
2019-03-26T17:59:18.859Z,2.13
2019-03-26T18:01:27.489Z,1.67
2019-03-26T18:03:34.627Z,1.80
2019-03-26T18:05:41.163Z,1.87
2019-03-26T18:07:48.062Z,1.90
2019-03-26T18:09:55.830Z,1.87
2019-03-26T18:12:03.108Z,2.30
2019-03-26T18:14:10.755Z,1.87
2019-03-26T18:16:18.127Z,2.10
2019-03-26T18:18:25.313Z,1.90
2019-03-26T18:20:33.236Z,2.27
2019-03-26T18:22:41.130Z,2.10
2019-03-26T18:24:49.670Z,2.00
2019-03-26T18:26:56.304Z,2.00
2019-03-26T18:29:04.453Z,2.20
2019-03-26T18:31:11.770Z,2.17
2019-03-26T18:33:18.957Z,3.17
2019-03-26T18:35:28.652Z,2.17
2019-03-26T18:37:35.812Z,2.23
2019-03-26T18:39:43.281Z,2.00
2019-03-26T18:41:50.306Z,1.47
2019-03-26T18:43:58.131Z,1.73
2019-03-26T18:46:06.768Z,1.70
2019-03-26T18:48:15.531Z,1.90
2019-03-26T18:50:24.326Z,2.07
2019-03-26T18:52:32.626Z,1.83
2019-03-26T18:54:39.190Z,1.90
2019-03-26T18:56:45.871Z,1.93
2019-03-26T18:58:53.848Z,2.30
2019-03-26T19:01:01.155Z,1.87
2019-03-26T19:03:08.863Z,2.27
2019-03-26T19:05:17.341Z,2.00
2019-03-26T19:07:25.567Z,1.83
2019-03-26T19:09:33.520Z,2.30
2019-03-26T19:11:42.254Z,2.10
2019-03-26T19:13:48.406Z,2.50
2019-03-26T19:15:54.564Z,2.17
2019-03-26T19:18:00.556Z,2.30
2019-03-26T19:20:06.848Z,1.93
2019-03-26T19:22:14.073Z,2.53
2019-03-26T19:24:21.253Z,2.50
2019-03-26T19:26:28.748Z,2.17
2019-03-26T19:28:38.114Z,2.23
2019-03-26T19:30:53.097Z,2.10
2019-03-26T19:32:59.803Z,2.03
2019-03-26T19:35:10.729Z,1.93
2019-03-26T19:37:17.431Z,1.80
2019-03-26T19:39:23.700Z,1.77
2019-03-26T19:41:30.398Z,1.70
2019-03-26T19:43:36.416Z,1.60
2019-03-26T19:45:42.775Z,1.87
2019-03-26T19:47:48.882Z,2.30
2019-03-26T19:49:54.974Z,1.97
2019-03-26T19:52:01.726Z,2.33
2019-03-26T19:54:08.184Z,1.70
2019-03-26T19:56:14.358Z,2.07
2019-03-26T19:58:20.697Z,1.47
2019-03-26T20:00:27.075Z,1.50
2019-03-26T20:02:33.106Z,1.60
2019-03-26T20:04:40.117Z,2.07
2019-03-26T20:06:46.257Z,2.03
2019-03-26T20:08:52.351Z,1.87
2019-03-26T20:10:58.536Z,1.83
2019-03-26T20:13:05.949Z,1.90
2019-03-26T20:15:12.858Z,1.57
2019-03-26T20:17:18.638Z,2.00
2019-03-26T20:19:25.270Z,2.07
2019-03-26T20:21:31.184Z,1.93
2019-03-26T20:23:37.609Z,1.67
2019-03-26T20:25:44.011Z,1.83
2019-03-26T20:27:49.796Z,2.20
2019-03-26T20:29:56.497Z,1.73
2019-03-26T20:32:02.524Z,1.83
2019-03-26T20:34:08.382Z,2.10
2019-03-26T20:36:14.285Z,1.90
2019-03-26T20:38:20.125Z,2.07
2019-03-26T20:40:26.332Z,2.40
2019-03-26T20:42:32.170Z,1.97
2019-03-26T20:44:38.325Z,1.73
2019-03-26T20:46:44.448Z,2.07
2019-03-26T20:48:50.830Z,2.03
2019-03-26T20:50:57.566Z,1.70
2019-03-26T20:53:03.837Z,2.10
2019-03-26T20:55:12.047Z,1.80
2019-03-26T20:57:18.302Z,1.60
2019-03-26T20:59:25.413Z,1.80
2019-03-26T21:01:31.452Z,1.93
2019-03-26T21:03:37.585Z,1.83
2019-03-26T21:05:43.358Z,1.67
2019-03-26T21:07:49.131Z,1.80
2019-03-26T21:09:54.840Z,2.10
2019-03-26T21:12:00.673Z,1.53
2019-03-26T21:14:06.474Z,1.87
2019-03-26T21:16:12.585Z,1.80
2019-03-26T21:18:18.392Z,1.63
2019-03-26T21:20:24.487Z,1.90
2019-03-26T21:22:30.895Z,1.73
2019-03-26T21:24:37.615Z,2.20
2019-03-26T21:26:43.645Z,1.80
2019-03-26T21:28:49.722Z,1.77
2019-03-26T21:30:55.408Z,2.00
2019-03-26T21:33:01.450Z,1.83
2019-03-26T21:35:08.621Z,1.93
2019-03-26T21:37:15.028Z,1.80
2019-03-26T21:39:20.785Z,1.67
2019-03-26T21:41:27.216Z,1.40
2019-03-26T21:43:33.264Z,1.80
2019-03-26T21:45:41.088Z,2.00
2019-03-26T21:47:47.100Z,2.13
2019-03-26T21:49:53.367Z,1.70
2019-03-26T21:51:59.380Z,1.90
2019-03-26T21:54:05.577Z,1.73
2019-03-26T21:56:11.657Z,1.67
2019-03-26T21:58:17.425Z,2.00
2019-03-26T22:00:23.594Z,1.90
2019-03-26T22:02:30.196Z,1.50
2019-03-26T22:04:35.945Z,1.40
2019-03-26T22:06:41.704Z,1.67
2019-03-26T22:08:48.879Z,2.13
2019-03-26T22:10:54.893Z,1.73
2019-03-26T22:13:01.092Z,2.17
2019-03-26T22:15:09.446Z,2.17
2019-03-26T22:17:15.482Z,1.57
2019-03-26T22:19:28.364Z,1.50
2019-03-26T22:21:29.321Z,2.00
2019-03-26T22:23:35.390Z,1.70
2019-03-26T22:25:41.049Z,1.83
2019-03-26T22:27:46.832Z,2.07
2019-03-26T22:29:53.225Z,1.87
2019-03-26T22:31:59.142Z,1.90
2019-03-26T22:34:05.568Z,1.90
2019-03-26T22:36:11.670Z,1.63
2019-03-26T22:38:18.543Z,1.73
2019-03-26T22:40:24.748Z,1.90
2019-03-26T22:42:30.976Z,2.03
2019-03-26T22:44:37.097Z,2.57
2019-03-26T22:46:43.346Z,2.00
2019-03-26T22:48:49.641Z,1.93
2019-03-26T22:50:55.546Z,2.00
2019-03-26T22:53:01.689Z,1.93
2019-03-26T22:55:08.783Z,1.90
2019-03-26T22:57:15.116Z,1.60
2019-03-26T22:59:21.757Z,2.00
2019-03-26T23:01:27.930Z,1.60
2019-03-26T23:03:33.962Z,2.37
2019-03-26T23:05:40.540Z,2.00
2019-03-26T23:07:46.928Z,1.80
2019-03-26T23:09:52.857Z,2.10
2019-03-26T23:11:59.235Z,1.93
2019-03-26T23:14:06.037Z,1.70
2019-03-26T23:16:12.033Z,1.60
2019-03-26T23:18:18.499Z,1.87
2019-03-26T23:20:25.827Z,1.83
2019-03-26T23:22:31.874Z,2.53
2019-03-26T23:24:37.571Z,2.30
2019-03-26T23:26:43.239Z,2.37
2019-03-26T23:28:49.285Z,2.10
2019-03-26T23:30:55.478Z,1.90
2019-03-26T23:33:01.599Z,2.30
2019-03-26T23:35:07.906Z,2.23
2019-03-26T23:37:14.176Z,2.73
2019-03-26T23:39:20.031Z,1.93
2019-03-26T23:41:26.063Z,2.17
2019-03-26T23:43:31.820Z,2.10
2019-03-26T23:45:37.667Z,2.27
2019-03-26T23:47:43.665Z,1.97
2019-03-26T23:49:49.463Z,2.50
2019-03-26T23:51:55.773Z,2.13
2019-03-26T23:54:01.794Z,2.63
2019-03-26T23:56:07.845Z,2.37
2019-03-26T23:58:13.843Z,2.57
